Time;durP1;ratioP1;P1;durP2;ratioP2;P2;SDS_P1;SDS_P2;PMS_P1;PMS_P2;Temp;Humidity;BMP_temperature;BMP_pressure;BME280_temperature;BME280_humidity;BME280_pressure;Samples;Min_cycle;Max_cycle;Signal;HPM_P1;HPM_P2
2023/08/21 00:57:29;;;;;;;8.75;7.88;;;;;;;24.57;69.80;97207.03;5206144;23;20079;-82
2023/08/21 01:02:36;;;;;;;11.95;8.07;;;;;;;24.61;69.17;97208.13;4973521;23;20062;-82
2023/08/21 01:05:17;;;;;;;8.68;6.95;;;;;;;24.64;69.28;97202.28;4962276;29;20035;-81
2023/08/21 01:07:55;;;;;;;9.57;7.65;;;;;;;24.64;69.43;97199.63;4961862;29;20031;-80
2023/08/21 01:10:44;;;;;;;7.78;7.05;;;;;;;24.60;69.40;97208.41;4962110;29;20035;-80
2023/08/21 01:38:18;;;;;;;9.07;7.72;;;;;;;24.41;70.91;97224.75;5523573;23;20039;-81
2023/08/21 03:03:33;;;;;;;9.27;8.32;;;;;;;23.43;73.81;97196.38;4983423;29;20035;-79
2023/08/21 03:06:47;;;;;;;9.35;8.45;;;;;;;23.38;74.27;97198.97;4932235;29;20045;-79
2023/08/21 07:16:39;;;;;;;13.70;8.30;;;;;;;25.95;67.55;97313.72;5074021;23;20023;-79
2023/08/21 07:20:26;;;;;;;10.52;8.52;;;;;;;26.10;67.67;97310.28;4980209;28;20059;-80
2023/08/21 07:22:54;;;;;;;11.52;9.27;;;;;;;26.24;67.25;97303.38;4980446;28;20107;-80
2023/08/21 07:25:22;;;;;;;12.38;8.45;;;;;;;26.36;66.86;97305.00;4981639;28;20063;-80
2023/08/21 08:21:46;;;;;;;10.82;7.90;;;;;;;29.00;58.39;97324.91;5057623;23;19950;-81
2023/08/21 09:00:59;;;;;;;7.45;6.35;;;;;;;31.10;53.76;97316.75;4980784;28;20078;-82
2023/08/21 09:03:36;;;;;;;7.55;6.40;;;;;;;31.20;52.28;97319.28;4980392;28;20035;-82
2023/08/21 09:11:46;;;;;;;7.85;5.88;;;;;;;31.50;51.28;97324.41;5602980;23;20036;-82
2023/08/21 09:14:31;;;;;;;10.27;5.72;;;;;;;31.57;51.59;97316.69;4981251;29;20028;-82
2023/08/21 09:17:31;;;;;;;6.35;5.75;;;;;;;31.71;50.70;97316.69;4981307;29;20046;-82
2023/08/21 09:20:08;;;;;;;7.95;5.80;;;;;;;31.81;49.50;97316.47;4981305;29;20059;-83
2023/08/21 09:22:44;;;;;;;8.38;6.05;;;;;;;31.85;48.02;97316.69;4981512;29;20053;-83
2023/08/21 13:57:44;;;;;;;7.88;5.55;;;;;;;33.66;39.82;97164.03;5424065;23;20178;-81
2023/08/21 14:00:13;;;;;;;7.93;5.40;;;;;;;33.64;39.49;97156.22;4951844;29;20071;-81
2023/08/21 14:02:41;;;;;;;5.85;5.25;;;;;;;33.65;39.78;97157.81;4954887;29;20189;-81
2023/08/21 14:05:10;;;;;;;6.60;5.32;;;;;;;33.67;40.08;97156.69;4951699;29;20528;-80
2023/08/21 14:07:39;;;;;;;11.00;6.03;;;;;;;33.66;39.91;97147.78;4946697;29;20054;-80
2023/08/21 14:10:09;;;;;;;10.27;6.35;;;;;;;33.68;40.61;97145.56;4945629;29;20166;-80
2023/08/21 14:12:37;;;;;;;7.45;5.80;;;;;;;33.65;40.32;97146.19;4937990;29;20086;-80
2023/08/21 14:15:10;;;;;;;;;;;;;;;33.63;41.29;97146.53;4945492;29;20083;-80
2023/08/21 14:17:38;;;;;;;6.68;4.90;;;;;;;33.55;41.10;97143.78;4944496;29;19930;-81
2023/08/21 14:20:08;;;;;;;7.95;5.20;;;;;;;33.50;40.71;97152.88;4945921;29;20485;-80
2023/08/21 14:22:35;;;;;;;7.68;5.93;;;;;;;33.47;40.27;97141.88;4946823;29;20052;-78
2023/08/21 14:25:05;;;;;;;6.10;4.78;;;;;;;33.43;40.67;97147.09;4940657;29;20394;-81
2023/08/21 14:27:33;;;;;;;7.28;4.53;;;;;;;33.40;40.45;97142.34;4937711;29;20086;-81
2023/08/21 14:30:01;;;;;;;7.60;4.95;;;;;;;33.39;40.95;97144.25;4936280;29;20055;-81
2023/08/21 14:32:30;;;;;;;8.20;5.07;;;;;;;33.37;39.11;97143.00;4938067;29;20510;-81
2023/08/21 14:34:58;;;;;;;5.38;4.82;;;;;;;33.32;39.50;97140.41;4940590;29;20047;-81
2023/08/21 14:37:25;;;;;;;8.20;5.90;;;;;;;33.27;40.58;97138.66;4941165;29;20052;-81
2023/08/21 14:39:53;;;;;;;6.78;4.78;;;;;;;33.22;40.48;97136.91;4941802;29;20087;-81
2023/08/21 14:42:21;;;;;;;5.90;5.25;;;;;;;33.17;40.54;97128.97;4940883;29;20048;-81
2023/08/21 14:44:49;;;;;;;6.85;5.50;;;;;;;33.12;40.37;97126.41;4942280;29;20054;-81
2023/08/21 14:47:17;;;;;;;6.03;5.13;;;;;;;33.11;40.29;97129.44;4952487;29;20044;-81
2023/08/21 14:49:46;;;;;;;8.13;5.57;;;;;;;33.08;40.28;97136.25;4953384;29;20193;-81
2023/08/21 14:52:13;;;;;;;6.07;4.68;;;;;;;33.06;39.75;97127.66;4951131;29;20051;-80
2023/08/21 14:54:41;;;;;;;7.88;5.10;;;;;;;33.02;40.75;97122.06;4948298;29;20110;-81
2023/08/21 14:57:08;;;;;;;6.25;5.20;;;;;;;33.01;40.71;97125.09;4954565;29;20063;-81
2023/08/21 14:59:36;;;;;;;7.05;5.28;;;;;;;32.98;40.75;97120.31;4949728;29;20051;-81
2023/08/21 15:02:04;;;;;;;5.60;4.63;;;;;;;32.95;40.22;97123.63;4948983;29;20090;-80
2023/08/21 15:04:32;;;;;;;5.57;4.53;;;;;;;32.92;41.13;97121.56;4951965;29;20568;-81
2023/08/21 15:07:01;;;;;;;5.68;5.18;;;;;;;32.89;40.63;97122.19;4947462;29;20644;-81
2023/08/21 15:09:28;;;;;;;5.18;4.60;;;;;;;32.86;41.56;97126.31;4947170;29;20079;-81
2023/08/21 15:11:56;;;;;;;7.13;5.15;;;;;;;32.80;41.31;97120.28;4946565;29;20048;-81
2023/08/21 15:14:24;;;;;;;5.35;4.85;;;;;;;32.77;41.10;97112.78;4946434;29;20084;-81
2023/08/21 15:16:51;;;;;;;6.40;5.70;;;;;;;32.74;41.19;97113.41;4946063;29;20071;-81
2023/08/21 15:19:28;;;;;;;5.65;5.05;;;;;;;32.72;41.13;97112.13;4945632;29;20055;-81
2023/08/21 15:21:56;;;;;;;6.15;4.88;;;;;;;32.68;41.25;97116.56;4944792;29;20059;-81
2023/08/21 15:24:25;;;;;;;8.45;4.85;;;;;;;32.65;41.26;97107.19;4945455;29;20154;-81
2023/08/21 15:26:52;;;;;;;7.80;4.82;;;;;;;32.62;40.83;97103.22;4944917;29;20078;-81
2023/08/21 15:29:20;;;;;;;5.40;4.97;;;;;;;32.58;40.73;97107.66;4945005;29;20051;-79
2023/08/21 15:31:48;;;;;;;6.38;4.80;;;;;;;32.54;40.10;97105.88;4945283;29;20051;-81
2023/08/21 15:34:15;;;;;;;4.70;4.15;;;;;;;32.51;40.83;97103.75;4943965;29;20079;-81
2023/08/21 15:36:43;;;;;;;7.00;4.85;;;;;;;32.50;40.78;97099.50;4943871;29;20051;-81
2023/08/21 15:39:11;;;;;;;5.95;5.20;;;;;;;32.46;40.37;97095.81;4943486;29;20047;-81
2023/08/21 15:41:40;;;;;;;7.47;5.38;;;;;;;32.41;40.82;97094.06;4944270;29;20133;-81
2023/08/21 15:44:07;;;;;;;6.28;4.53;;;;;;;32.37;40.97;97091.16;4942493;29;20051;-81
2023/08/21 15:46:35;;;;;;;5.65;4.50;;;;;;;32.34;41.12;97097.19;4942763;29;20048;-81
2023/08/21 15:49:02;;;;;;;7.55;4.80;;;;;;;32.33;41.44;97102.91;4942831;29;20114;-81
2023/08/21 15:51:30;;;;;;;9.45;5.57;;;;;;;32.28;40.75;97098.44;4942875;29;20070;-81
2023/08/21 15:53:58;;;;;;;6.10;4.80;;;;;;;32.23;41.23;97093.16;4942422;29;20055;-81
2023/08/21 15:56:25;;;;;;;10.70;5.07;;;;;;;32.20;41.11;97091.88;4941672;29;20090;-81
2023/08/21 15:58:55;;;;;;;7.78;5.47;;;;;;;32.19;41.68;97086.81;4941830;29;20051;-81
2023/08/21 16:01:22;;;;;;;6.47;4.30;;;;;;;32.14;41.57;97085.03;4941601;29;20071;-81
2023/08/21 16:03:50;;;;;;;9.27;4.70;;;;;;;32.13;41.82;97086.13;4942189;29;20429;-81
2023/08/21 16:06:18;;;;;;;5.78;4.80;;;;;;;32.11;42.38;97077.56;4940780;29;20425;-81
2023/08/21 16:08:45;;;;;;;4.93;4.45;;;;;;;32.11;41.92;97076.75;4941367;29;20134;-81
2023/08/21 16:11:13;;;;;;;7.90;5.10;;;;;;;32.09;42.37;97079.75;4941171;29;20107;-81
2023/08/21 16:13:41;;;;;;;5.63;4.35;;;;;;;32.08;42.55;97071.97;4940224;29;20047;-81
2023/08/21 16:16:10;;;;;;;6.25;5.15;;;;;;;32.06;41.94;97071.50;4940920;29;20080;-81
2023/08/21 16:18:38;;;;;;;6.35;4.90;;;;;;;32.04;41.62;97063.72;4940208;29;20056;-81
2023/08/21 16:21:06;;;;;;;8.55;4.93;;;;;;;32.01;41.66;97067.00;4940188;29;20048;-81
2023/08/21 16:23:34;;;;;;;8.55;5.45;;;;;;;32.01;42.22;97070.53;4946841;29;20055;-81
2023/08/21 16:26:02;;;;;;;5.43;4.43;;;;;;;32.00;41.42;97065.44;4946603;29;20102;-81
2023/08/21 16:28:29;;;;;;;7.78;4.88;;;;;;;31.98;41.80;97063.03;4946543;29;20075;-81
2023/08/21 16:30:57;;;;;;;7.18;5.13;;;;;;;31.95;42.09;97058.25;4945853;29;20377;-80
2023/08/21 16:33:26;;;;;;;5.78;4.30;;;;;;;31.92;42.35;97063.44;4945071;29;20117;-81
2023/08/21 16:35:53;;;;;;;6.25;4.82;;;;;;;31.90;42.36;97065.66;4944976;29;20079;-81
2023/08/21 16:38:21;;;;;;;10.00;5.65;;;;;;;31.87;42.27;97063.59;4944436;29;20277;-81
2023/08/21 16:40:49;;;;;;;6.90;4.53;;;;;;;31.83;42.22;97066.09;4948765;28;20059;-80
2023/08/21 16:43:17;;;;;;;5.28;4.53;;;;;;;31.82;42.35;97067.22;4950927;29;20051;-81
2023/08/21 16:45:45;;;;;;;4.82;4.38;;;;;;;31.80;42.17;97066.72;4935394;29;20051;-81
2023/08/21 16:48:13;;;;;;;6.55;4.78;;;;;;;31.77;42.27;97064.63;4936096;29;20054;-81
2023/08/21 16:50:42;;;;;;;8.00;4.28;;;;;;;31.76;42.09;97063.03;4936105;29;20050;-81
2023/08/21 16:53:10;;;;;;;6.63;4.35;;;;;;;31.73;42.11;97066.38;4936341;29;20082;-81
2023/08/21 16:55:49;;;;;;;8.77;4.70;;;;;;;31.71;42.61;97068.56;4938674;29;20070;-81
2023/08/21 16:58:17;;;;;;;8.85;5.07;;;;;;;31.70;43.00;97067.75;4939457;29;20044;-81
2023/08/21 17:00:45;;;;;;;8.63;4.47;;;;;;;31.69;43.38;97063.47;4936508;29;20618;-81
2023/08/21 17:03:13;;;;;;;5.43;4.72;;;;;;;31.68;43.14;97069.16;4935813;29;20051;-82
2023/08/21 17:05:42;;;;;;;6.97;5.00;;;;;;;31.66;43.55;97074.06;4936359;29;20074;-81
2023/08/21 17:08:10;;;;;;;7.40;4.85;;;;;;;31.62;43.78;97071.22;4940163;29;20228;-81
2023/08/21 17:10:37;;;;;;;6.38;4.85;;;;;;;31.61;43.86;97064.22;4948360;29;20052;-81
2023/08/21 17:13:06;;;;;;;7.82;5.07;;;;;;;31.57;44.10;97058.63;4941096;29;20058;-81
2023/08/21 17:15:34;;;;;;;6.45;5.07;;;;;;;31.54;44.29;97058.47;4939890;29;20466;-81
2023/08/21 17:18:02;;;;;;;7.97;4.57;;;;;;;31.51;44.05;97057.19;4939346;29;20048;-81
2023/08/21 17:20:30;;;;;;;9.20;4.78;;;;;;;31.49;44.86;97056.69;4939541;29;20533;-82
2023/08/21 17:22:59;;;;;;;6.20;4.95;;;;;;;31.46;44.67;97062.66;4939219;29;20454;-81
2023/08/21 17:25:26;;;;;;;8.55;4.72;;;;;;;31.43;45.22;97066.00;4938213;29;20058;-81
2023/08/21 17:27:54;;;;;;;6.72;4.97;;;;;;;31.39;45.24;97065.75;4937027;29;20139;-81
2023/08/21 17:30:22;;;;;;;7.10;4.38;;;;;;;31.37;45.09;97069.88;4936855;29;20111;-81
2023/08/21 17:32:49;;;;;;;7.63;5.00;;;;;;;31.33;45.17;97069.66;4937408;29;20079;-81
2023/08/21 17:35:17;;;;;;;8.73;5.00;;;;;;;31.30;45.35;97064.13;4937391;29;20051;-81
2023/08/21 17:37:44;;;;;;;7.82;4.70;;;;;;;31.27;45.47;97065.53;4937956;29;20052;-81
2023/08/21 17:40:13;;;;;;;6.47;4.80;;;;;;;31.24;45.64;97068.03;4937805;29;20055;-81
2023/08/21 17:42:41;;;;;;;7.00;4.68;;;;;;;31.21;45.84;97066.75;4939001;29;20051;-81
2023/08/21 17:45:09;;;;;;;5.60;4.82;;;;;;;31.19;46.24;97072.41;4938032;29;20483;-81
2023/08/21 17:47:37;;;;;;;7.85;5.03;;;;;;;31.17;46.28;97068.44;4930240;29;20498;-81
2023/08/21 17:50:07;;;;;;;8.50;4.78;;;;;;;31.14;46.24;97072.53;4938798;29;20095;-81
2023/08/21 17:52:34;;;;;;;8.15;5.68;;;;;;;31.11;46.52;97067.75;4937057;29;20051;-81
2023/08/21 17:55:03;;;;;;;8.85;5.70;;;;;;;31.09;46.98;97074.53;4937054;29;20371;-81
2023/08/21 17:57:32;;;;;;;8.02;5.35;;;;;;;31.05;47.54;97070.84;4937352;29;20063;-81
2023/08/21 18:00:05;;;;;;;7.82;5.32;;;;;;;31.01;47.32;97062.59;4937255;29;20426;-82
2023/08/21 18:02:34;;;;;;;6.05;5.43;;;;;;;30.96;47.69;97073.47;4938130;29;20067;-81
2023/08/21 18:05:02;;;;;;;11.35;5.47;;;;;;;30.91;48.33;97073.59;4938630;29;20048;-81
2023/08/21 18:07:30;;;;;;;8.70;5.97;;;;;;;30.85;49.93;97074.75;4941541;29;20075;-81
2023/08/21 18:09:58;;;;;;;10.10;6.22;;;;;;;30.79;50.42;97077.56;4942267;29;20490;-81
2023/08/21 18:12:25;;;;;;;9.77;6.07;;;;;;;30.71;51.05;97078.25;4936397;29;20515;-81
2023/08/21 18:14:54;;;;;;;9.20;5.57;;;;;;;30.64;50.96;97080.56;4927698;29;20088;-81
2023/08/21 18:17:22;;;;;;;6.55;5.85;;;;;;;30.55;51.47;97077.00;4927396;29;20048;-80
2023/08/21 18:19:50;;;;;;;10.23;5.95;;;;;;;30.47;52.14;97080.38;4940821;29;20052;-80
2023/08/21 18:22:18;;;;;;;7.85;5.65;;;;;;;30.35;51.63;97080.84;4940777;29;20092;-80
2023/08/21 18:24:46;;;;;;;7.75;5.60;;;;;;;30.22;51.52;97081.59;4956240;29;20067;-80
2023/08/21 18:27:14;;;;;;;6.28;5.22;;;;;;;30.09;51.62;97080.50;4957739;29;20052;-82
2023/08/21 18:29:42;;;;;;;8.85;5.68;;;;;;;29.96;51.88;97082.06;4953277;29;20055;-81
2023/08/21 18:32:11;;;;;;;7.43;5.13;;;;;;;29.86;51.82;97080.34;4959504;29;20040;-80
2023/08/21 18:34:38;;;;;;;5.85;5.35;;;;;;;29.78;52.15;97086.38;4941497;29;20056;-81
2023/08/21 18:37:08;;;;;;;10.25;5.53;;;;;;;29.71;52.21;97083.28;4941888;29;20052;-79
2023/08/21 18:39:36;;;;;;;9.15;5.70;;;;;;;29.63;51.77;97079.34;4939804;29;20072;-79
2023/08/21 18:42:04;;;;;;;8.63;5.80;;;;;;;29.52;51.77;97089.47;4933262;29;20055;-81
2023/08/21 18:44:32;;;;;;;8.65;5.38;;;;;;;29.43;52.17;97096.59;4931187;29;20079;-81
2023/08/21 18:47:00;;;;;;;6.60;5.05;;;;;;;29.34;51.87;97093.78;4927484;29;20107;-79
2023/08/21 18:49:29;;;;;;;10.05;5.25;;;;;;;29.28;52.80;97099.47;4926888;29;20048;-80
2023/08/21 18:51:56;;;;;;;7.35;5.70;;;;;;;29.20;52.83;97103.63;4925917;29;20138;-81
2023/08/21 18:54:24;;;;;;;6.32;5.18;;;;;;;29.14;53.00;97100.19;4936419;29;20048;-80
2023/08/21 18:56:52;;;;;;;12.50;6.05;;;;;;;29.08;53.07;97103.22;4945082;29;20062;-79
2023/08/21 18:59:20;;;;;;;9.57;5.15;;;;;;;29.04;53.32;97107.56;4951631;28;20035;-81
2023/08/21 19:01:48;;;;;;;7.75;5.55;;;;;;;28.99;52.92;97108.44;4936700;29;20486;-81
2023/08/21 19:04:16;;;;;;;8.18;5.50;;;;;;;28.92;53.17;97108.78;4924368;29;20062;-82
2023/08/21 19:06:45;;;;;;;9.88;5.20;;;;;;;28.88;53.13;97123.06;4936243;29;20076;-81
2023/08/21 19:09:30;;;;;;;7.38;5.43;;;;;;;28.80;53.39;97116.47;4940069;29;20139;-81
2023/08/21 19:11:58;;;;;;;7.28;5.28;;;;;;;28.73;53.66;97119.50;4941610;29;20090;-82
2023/08/21 19:14:26;;;;;;;9.20;5.93;;;;;;;28.66;54.56;97119.03;4928397;29;20051;-81
2023/08/21 19:16:54;;;;;;;8.73;6.18;;;;;;;28.61;54.99;97113.72;4930899;29;20048;-82
2023/08/21 19:19:22;;;;;;;8.50;6.30;;;;;;;28.57;55.13;97117.28;4938161;29;20130;-80
2023/08/21 19:21:51;;;;;;;8.68;5.85;;;;;;;28.52;55.36;97121.59;4939011;29;20048;-82
2023/08/21 19:24:19;;;;;;;8.10;5.63;;;;;;;28.49;54.78;97116.81;4929382;29;20051;-81
2023/08/21 19:26:46;;;;;;;9.32;5.43;;;;;;;28.47;55.07;97120.81;4938882;29;20048;-82
2023/08/21 19:29:14;;;;;;;6.18;5.57;;;;;;;28.42;55.15;97116.31;4933937;29;20478;-83
2023/08/21 19:31:42;;;;;;;8.68;5.93;;;;;;;28.35;55.04;97116.66;4935464;29;20052;-81
2023/08/21 19:34:10;;;;;;;6.93;6.25;;;;;;;28.28;55.30;97105.47;4923780;29;20059;-81
2023/08/21 19:36:38;;;;;;;8.65;5.85;;;;;;;28.23;55.90;97102.00;4930171;29;20052;-81
2023/08/21 19:39:07;;;;;;;8.38;5.93;;;;;;;28.18;55.73;97110.13;4942559;29;20051;-82
2023/08/21 19:41:34;;;;;;;9.38;5.53;;;;;;;28.14;55.71;97109.88;4941940;29;20051;-81
2023/08/21 19:44:02;;;;;;;8.45;6.13;;;;;;;28.11;55.81;97108.56;4940631;29;20059;-82
2023/08/21 19:46:30;;;;;;;8.85;5.20;;;;;;;28.08;55.95;97111.03;4933298;29;20064;-81
2023/08/21 19:48:57;;;;;;;6.78;5.50;;;;;;;28.05;56.24;97112.38;4920112;29;20546;-80
2023/08/21 19:51:25;;;;;;;9.73;5.72;;;;;;;28.03;56.16;97109.19;4919712;29;20060;-81
2023/08/21 19:53:53;;;;;;;12.38;6.25;;;;;;;28.02;56.12;97110.25;4919232;29;20044;-81
2023/08/21 19:56:22;;;;;;;10.27;6.10;;;;;;;28.00;56.51;97117.78;4921235;29;20098;-82
2023/08/21 19:58:49;;;;;;;7.05;5.78;;;;;;;28.02;56.10;97114.84;4928130;29;20056;-81
2023/08/21 20:01:17;;;;;;;6.30;5.63;;;;;;;27.97;56.59;97113.00;4935673;29;20048;-82
2023/08/21 20:03:45;;;;;;;7.40;6.13;;;;;;;27.94;56.70;97111.69;4937994;29;20047;-81
2023/08/21 20:06:14;;;;;;;6.78;6.07;;;;;;;27.97;56.58;97115.69;4931172;29;20052;-82
2023/08/21 20:08:42;;;;;;;7.40;5.55;;;;;;;27.94;56.84;97111.69;4918268;29;20044;-80
2023/08/21 20:11:10;;;;;;;8.13;5.85;;;;;;;27.88;57.23;97112.81;4918156;29;20060;-81
2023/08/21 20:13:39;;;;;;;8.02;6.45;;;;;;;27.83;57.39;97120.03;4917439;29;20106;-80
2023/08/21 20:16:08;;;;;;;9.55;6.05;;;;;;;27.77;57.55;97121.97;4918187;29;20044;-80
2023/08/21 20:18:36;;;;;;;10.55;6.35;;;;;;;27.69;57.35;97125.25;4918336;29;20048;-81
2023/08/21 20:21:04;;;;;;;9.18;6.68;;;;;;;27.60;57.54;97122.38;4919935;29;20100;-84
2023/08/21 20:23:34;;;;;;;7.28;5.43;;;;;;;27.56;57.31;97128.56;4925130;29;20051;-82
2023/08/21 20:26:02;;;;;;;6.53;5.90;;;;;;;27.51;57.86;97121.34;4928865;29;20422;-82
2023/08/21 20:28:29;;;;;;;7.07;6.03;;;;;;;27.44;57.89;97124.34;4925014;29;20051;-83
2023/08/21 20:31:01;;;;;;;8.77;6.13;;;;;;;27.37;58.55;97125.72;4926075;29;20048;-80
2023/08/21 20:33:29;;;;;;;;;;;;;;;27.30;57.79;97129.50;4940813;29;20080;-81
2023/08/21 20:35:57;;;;;;;10.30;6.05;;;;;;;27.22;58.52;97131.97;4943616;29;19945;-82
2023/08/21 20:38:27;;;;;;;7.47;5.95;;;;;;;27.19;59.30;97135.16;4954790;29;20069;-80
2023/08/21 20:40:56;;;;;;;7.60;6.05;;;;;;;27.16;59.09;97133.03;4944962;28;20044;-82
2023/08/21 20:43:24;;;;;;;8.93;6.25;;;;;;;27.13;59.04;97129.84;4937046;29;20056;-82
2023/08/21 20:45:51;;;;;;;9.30;5.78;;;;;;;27.10;59.34;97133.06;4938090;29;20100;-80
2023/08/21 20:48:20;;;;;;;8.85;5.95;;;;;;;27.09;59.56;97133.31;4939379;29;20064;-82
2023/08/21 20:50:48;;;;;;;6.35;5.60;;;;;;;27.08;59.67;97126.38;4940150;29;20055;-83
2023/08/21 20:53:16;;;;;;;7.72;5.30;;;;;;;27.05;59.27;97127.75;4940470;29;20084;-82
2023/08/21 20:55:44;;;;;;;10.30;6.13;;;;;;;27.03;59.97;97121.84;4940310;29;20028;-82
2023/08/21 20:58:12;;;;;;;10.13;5.95;;;;;;;27.00;59.34;97124.28;4939897;29;20059;-82
2023/08/21 21:00:39;;;;;;;8.55;6.30;;;;;;;26.94;59.65;97120.84;4940921;29;20040;-82
2023/08/21 21:03:07;;;;;;;7.72;5.85;;;;;;;26.89;59.18;97115.47;4941005;29;20047;-82
2023/08/21 21:05:37;;;;;;;10.32;5.50;;;;;;;26.86;59.39;97118.72;4941238;29;20043;-82
2023/08/21 21:08:05;;;;;;;9.60;5.05;;;;;;;26.86;59.61;97114.16;4941184;29;20036;-82
2023/08/21 21:10:33;;;;;;;9.10;5.43;;;;;;;26.88;59.31;97120.03;4940957;29;20056;-82
2023/08/21 21:13:01;;;;;;;11.10;6.03;;;;;;;26.86;58.93;97124.06;4940820;29;20052;-81
2023/08/21 21:15:28;;;;;;;10.77;5.70;;;;;;;26.83;59.08;97121.94;4941258;29;20032;-83
2023/08/21 21:17:57;;;;;;;7.95;5.38;;;;;;;26.81;58.96;97121.44;4941030;29;20068;-83
2023/08/21 21:20:25;;;;;;;5.57;5.07;;;;;;;26.77;59.54;97120.38;4940962;29;20043;-82
2023/08/21 21:22:54;;;;;;;9.25;5.88;;;;;;;26.73;59.23;97130.00;4940846;29;20036;-82
2023/08/21 21:25:21;;;;;;;5.90;5.30;;;;;;;26.68;59.49;97120.13;4941055;29;20051;-82
2023/08/21 21:27:49;;;;;;;6.38;5.30;;;;;;;26.65;59.07;97134.03;4940952;29;20036;-82
2023/08/21 21:30:17;;;;;;;8.30;5.60;;;;;;;26.56;59.53;97125.75;4940989;29;20036;-81
2023/08/21 21:32:44;;;;;;;8.32;5.40;;;;;;;26.48;60.03;97129.00;4940653;29;20046;-81
2023/08/21 21:35:12;;;;;;;8.18;5.55;;;;;;;26.42;59.89;97125.50;4940882;29;20040;-80
2023/08/21 21:37:40;;;;;;;7.70;5.15;;;;;;;26.36;60.23;97120.44;4940840;29;20096;-81
2023/08/21 21:40:10;;;;;;;10.38;5.80;;;;;;;26.29;60.97;97112.69;4940851;29;20043;-81
2023/08/21 21:42:38;;;;;;;9.73;5.63;;;;;;;26.22;60.86;97110.31;4943061;29;20092;-81
2023/08/21 21:45:06;;;;;;;8.68;5.63;;;;;;;26.15;61.12;97109.78;4944669;29;20051;-82
2023/08/21 21:47:34;;;;;;;9.48;5.90;;;;;;;26.14;61.51;97118.88;4944829;29;20044;-82
2023/08/21 21:50:03;;;;;;;8.77;6.13;;;;;;;26.12;61.64;97114.88;4944773;29;20116;-80
2023/08/21 21:52:30;;;;;;;9.60;5.32;;;;;;;26.08;61.63;97109.25;4944318;29;20040;-81
2023/08/21 21:54:58;;;;;;;6.47;5.40;;;;;;;26.05;61.40;97110.59;4944446;29;20059;-80
2023/08/21 21:57:27;;;;;;;6.68;5.80;;;;;;;26.02;61.97;97113.81;4944364;29;20036;-80
2023/08/21 21:59:55;;;;;;;6.47;5.57;;;;;;;25.99;62.04;97106.31;4944485;29;20032;-81
2023/08/21 22:02:23;;;;;;;6.05;5.47;;;;;;;25.96;62.05;97106.06;4943630;29;20032;-81
2023/08/21 22:04:51;;;;;;;9.25;5.93;;;;;;;25.92;62.08;97113.00;4944227;29;20064;-80
2023/08/21 22:07:18;;;;;;;9.43;6.00;;;;;;;25.87;62.17;97114.56;4944432;29;20036;-81
2023/08/21 22:09:47;;;;;;;8.45;6.10;;;;;;;25.86;62.48;97107.63;4932663;29;20056;-72
2023/08/21 22:12:15;;;;;;;12.30;5.60;;;;;;;25.86;62.30;97109.50;4918263;29;20059;-72
2023/08/21 22:14:44;;;;;;;6.53;5.40;;;;;;;25.84;62.35;97112.41;4919031;29;20161;-71
2023/08/21 22:17:11;;;;;;;5.53;5.03;;;;;;;25.83;62.38;97105.50;4918712;29;20132;-72
2023/08/21 22:19:39;;;;;;;6.80;5.50;;;;;;;25.81;62.40;97107.63;4917945;29;20048;-72
2023/08/21 22:22:07;;;;;;;8.65;5.85;;;;;;;25.80;62.39;97108.72;4918338;29;20052;-72
2023/08/21 22:24:35;;;;;;;8.70;6.05;;;;;;;25.79;62.44;97107.09;4911088;29;20094;-72
2023/08/21 22:27:03;;;;;;;7.38;5.60;;;;;;;25.83;62.43;97108.16;4918602;29;20060;-72
2023/08/21 22:29:31;;;;;;;6.70;5.85;;;;;;;25.87;62.37;97103.88;4918879;29;20047;-72
2023/08/21 22:31:59;;;;;;;7.38;5.88;;;;;;;25.90;62.17;97103.38;4918407;29;20499;-72
2023/08/21 22:34:27;;;;;;;7.00;5.10;;;;;;;25.90;62.35;97095.34;4918731;29;20052;-72
2023/08/21 22:36:55;;;;;;;8.85;5.80;;;;;;;25.88;62.33;97088.69;4918429;29;20107;-72
2023/08/21 22:39:22;;;;;;;6.38;5.25;;;;;;;25.86;62.29;97091.56;4918503;29;20060;-72
2023/08/21 22:41:50;;;;;;;6.22;5.05;;;;;;;25.81;62.36;97083.56;4918263;29;20076;-72
2023/08/21 22:44:17;;;;;;;7.93;5.45;;;;;;;25.76;62.35;97083.59;4918667;29;20052;-72
2023/08/21 22:46:45;;;;;;;8.45;5.15;;;;;;;25.72;62.37;97095.88;4918367;29;20056;-72
2023/08/21 22:49:14;;;;;;;5.75;5.13;;;;;;;25.72;62.43;97087.84;4918468;29;20063;-72
2023/08/21 22:51:42;;;;;;;7.65;5.82;;;;;;;25.75;62.42;97087.31;4918251;29;20055;-72
2023/08/21 22:54:09;;;;;;;7.65;5.55;;;;;;;25.76;62.13;97096.13;4917741;29;20116;-72
2023/08/21 22:56:37;;;;;;;9.27;6.03;;;;;;;25.73;62.24;97092.13;4917863;29;20112;-72
2023/08/21 22:59:04;;;;;;;11.75;6.35;;;;;;;25.72;62.57;97085.19;4918117;29;20494;-72
2023/08/21 23:01:33;;;;;;;7.13;5.25;;;;;;;25.71;62.51;97088.91;4917903;29;20048;-72
2023/08/21 23:04:01;;;;;;;8.40;5.63;;;;;;;25.71;62.32;97078.22;4917741;29;20071;-72
2023/08/21 23:06:30;;;;;;;6.95;5.30;;;;;;;25.69;62.42;97081.19;4917856;29;20052;-72
2023/08/21 23:08:58;;;;;;;8.95;5.85;;;;;;;25.65;62.63;97079.31;4917870;29;20580;-72
2023/08/21 23:11:25;;;;;;;8.38;6.03;;;;;;;25.62;62.37;97082.50;4917955;29;20116;-72
2023/08/21 23:13:53;;;;;;;6.80;5.68;;;;;;;25.57;62.59;97088.66;4931103;29;20063;-72
2023/08/21 23:16:21;;;;;;;9.25;5.72;;;;;;;25.54;62.59;97088.38;4939261;29;20200;-72
2023/08/21 23:18:48;;;;;;;9.15;5.10;;;;;;;25.49;62.71;97086.50;4937866;29;20115;-72
2023/08/21 23:21:16;;;;;;;8.73;5.30;;;;;;;25.45;62.84;97086.25;4938014;29;20052;-72
2023/08/21 23:23:45;;;;;;;9.93;5.80;;;;;;;25.41;63.07;97087.84;4920391;29;20060;-72
2023/08/21 23:26:13;;;;;;;8.07;5.20;;;;;;;25.38;63.07;97091.03;4918493;29;20087;-72
2023/08/21 23:28:40;;;;;;;6.65;5.32;;;;;;;25.32;63.38;97080.59;4917899;29;20052;-72
2023/08/21 23:31:09;;;;;;;7.22;5.22;;;;;;;25.26;63.58;97082.47;4917589;29;20434;-72
2023/08/21 23:33:36;;;;;;;6.50;5.47;;;;;;;25.20;63.71;97078.19;4917503;29;20107;-72
2023/08/21 23:36:04;;;;;;;7.88;5.00;;;;;;;25.15;63.80;97073.59;4931084;29;20052;-72
2023/08/21 23:38:32;;;;;;;7.72;5.20;;;;;;;25.11;63.88;97069.84;4917149;29;20507;-72
2023/08/21 23:41:01;;;;;;;8.00;5.47;;;;;;;25.05;64.17;97074.38;4917144;29;20569;-72
2023/08/21 23:43:28;;;;;;;6.80;5.57;;;;;;;25.00;64.35;97073.56;4917139;29;20311;-72
2023/08/21 23:45:56;;;;;;;8.38;5.35;;;;;;;24.98;64.32;97068.47;4917052;29;20083;-72
2023/08/21 23:48:23;;;;;;;8.45;5.55;;;;;;;24.95;64.34;97066.34;4916936;29;20060;-72
2023/08/21 23:50:51;;;;;;;7.45;5.82;;;;;;;24.93;64.46;97067.69;4917343;29;20094;-72
2023/08/21 23:53:19;;;;;;;7.95;5.25;;;;;;;24.91;64.62;97065.28;4916894;29;20099;-72
2023/08/21 23:55:46;;;;;;;12.05;5.55;;;;;;;24.90;64.60;97057.53;4916919;29;20056;-72
2023/08/21 23:58:15;;;;;;;9.82;6.03;;;;;;;24.90;64.71;97058.31;4916846;29;20111;-72
